createdAt,value
2022-10-22T00:01:58.624Z,17.94
2022-10-22T00:04:32.750Z,17.94
2022-10-22T00:07:07.868Z,17.92
2022-10-22T00:09:37.650Z,17.91
2022-10-22T00:12:08.241Z,17.87
2022-10-22T00:14:38.354Z,17.84
2022-10-22T00:17:11.165Z,17.84
2022-10-22T00:19:41.670Z,17.84
2022-10-22T00:22:14.432Z,17.80
2022-10-22T00:24:44.577Z,17.80
2022-10-22T00:27:15.046Z,17.79
2022-10-22T00:29:45.387Z,17.80
2022-10-22T00:32:15.376Z,17.83
2022-10-22T00:34:45.188Z,17.84
2022-10-22T00:37:17.515Z,17.80
2022-10-22T00:39:50.008Z,17.84
2022-10-22T00:42:23.941Z,17.87
2022-10-22T00:45:22.151Z,17.90
2022-10-22T00:47:57.171Z,17.92
2022-10-22T00:50:31.361Z,17.93
2022-10-22T00:53:05.633Z,17.93
2022-10-22T00:55:36.090Z,17.95
2022-10-22T00:58:06.235Z,17.97
2022-10-22T01:00:36.210Z,17.98
2022-10-22T01:03:06.253Z,17.99
2022-10-22T01:05:43.010Z,17.96
2022-10-22T01:08:26.149Z,17.89
2022-10-22T01:11:07.585Z,17.88
2022-10-22T01:13:45.887Z,17.88
2022-10-22T01:16:25.445Z,17.90
2022-10-22T01:19:04.371Z,17.87
2022-10-22T01:21:38.936Z,17.87
2022-10-22T01:24:41.303Z,17.84
2022-10-22T01:27:23.886Z,17.78
2022-10-22T01:29:58.316Z,17.77
2022-10-22T01:32:32.102Z,17.76
2022-10-22T01:35:06.954Z,17.79
2022-10-22T01:37:42.148Z,17.77
2022-10-22T01:40:13.611Z,17.79
2022-10-22T01:42:43.455Z,17.79
2022-10-22T01:45:17.402Z,17.77
2022-10-22T01:47:59.872Z,17.73
2022-10-22T01:50:44.448Z,17.76
2022-10-22T01:53:24.461Z,17.76
2022-10-22T01:56:12.389Z,17.76
2022-10-22T01:58:48.230Z,17.76
2022-10-22T02:01:29.453Z,17.73
2022-10-22T02:04:04.935Z,17.73
2022-10-22T02:06:36.691Z,17.71
2022-10-22T02:09:07.791Z,17.72
2022-10-22T02:11:37.899Z,17.68
2022-10-22T02:14:08.290Z,17.67
2022-10-22T02:16:44.779Z,17.67
2022-10-22T02:19:18.841Z,17.65
2022-10-22T02:21:48.922Z,17.66
2022-10-22T02:24:20.387Z,17.66
2022-10-22T02:26:57.681Z,17.66
2022-10-22T02:29:31.554Z,17.66
2022-10-22T02:32:06.326Z,17.70
2022-10-22T02:34:36.324Z,17.69
2022-10-22T02:37:07.274Z,17.67
2022-10-22T02:39:38.714Z,17.71
2022-10-22T02:42:08.660Z,17.72
2022-10-22T02:44:38.653Z,17.69
2022-10-22T02:47:11.059Z,17.63
2022-10-22T02:49:40.815Z,17.62
2022-10-22T02:52:10.600Z,17.61
2022-10-22T02:54:40.367Z,17.60
2022-10-22T02:57:10.416Z,17.61
2022-10-22T02:59:40.151Z,17.59
2022-10-22T03:02:12.490Z,17.59
2022-10-22T03:04:43.682Z,17.55
2022-10-22T03:07:13.692Z,17.54
2022-10-22T03:09:43.455Z,17.51
2022-10-22T03:12:13.254Z,17.48
2022-10-22T03:14:43.038Z,17.47
2022-10-22T03:17:15.402Z,17.48
2022-10-22T03:19:45.185Z,17.50
2022-10-22T03:22:19.775Z,17.52
2022-10-22T03:24:53.534Z,17.57
2022-10-22T03:27:25.043Z,17.59
2022-10-22T03:29:55.641Z,17.63
2022-10-22T03:32:28.072Z,17.63
2022-10-22T03:34:57.913Z,17.64
2022-10-22T03:37:30.299Z,17.64
2022-10-22T03:40:00.553Z,17.63
2022-10-22T03:42:30.540Z,17.59
2022-10-22T03:45:00.307Z,17.59
2022-10-22T03:47:32.602Z,17.59
2022-10-22T03:50:02.363Z,17.62
2022-10-22T03:52:32.209Z,17.61
2022-10-22T03:55:01.950Z,17.61
2022-10-22T03:57:31.797Z,17.62
2022-10-22T04:00:02.115Z,17.61
2022-10-22T04:02:37.552Z,17.61
2022-10-22T04:05:07.997Z,17.61
2022-10-22T04:07:37.925Z,17.62
2022-10-22T04:10:09.177Z,17.61
2022-10-22T04:12:38.972Z,17.61
2022-10-22T04:15:10.088Z,17.64
2022-10-22T04:17:42.689Z,17.64
2022-10-22T04:20:13.972Z,17.62
2022-10-22T04:22:43.825Z,17.63
2022-10-22T04:25:13.637Z,17.64
2022-10-22T04:27:43.537Z,17.64
2022-10-22T04:30:14.664Z,17.64
2022-10-22T04:32:46.965Z,17.63
2022-10-22T04:35:17.008Z,17.61
2022-10-22T04:37:46.767Z,17.56
2022-10-22T04:40:16.534Z,17.49
2022-10-22T04:42:46.281Z,17.47
2022-10-22T04:45:16.233Z,17.46
2022-10-22T04:47:48.855Z,17.45
2022-10-22T04:50:18.877Z,17.40
2022-10-22T04:52:48.633Z,17.39
2022-10-22T04:55:18.624Z,17.40
2022-10-22T04:57:48.447Z,17.39
2022-10-22T05:00:18.877Z,17.39
2022-10-22T05:02:54.344Z,17.43
2022-10-22T05:05:24.077Z,17.45
2022-10-22T05:07:53.903Z,17.45
2022-10-22T05:10:23.677Z,17.47
2022-10-22T05:12:53.428Z,17.43
2022-10-22T05:15:23.124Z,17.42
2022-10-22T05:17:55.421Z,17.44
2022-10-22T05:20:25.119Z,17.46
2022-10-22T05:22:54.878Z,17.47
2022-10-22T05:25:24.640Z,17.45
2022-10-22T05:27:57.200Z,17.41
2022-10-22T05:30:28.171Z,17.39
2022-10-22T05:33:00.511Z,17.37
2022-10-22T05:35:30.527Z,17.36
2022-10-22T05:38:00.277Z,17.34
2022-10-22T05:40:31.544Z,17.37
2022-10-22T05:43:01.619Z,17.43
2022-10-22T05:45:31.330Z,17.47
2022-10-22T05:48:03.692Z,17.48
2022-10-22T05:50:34.007Z,17.49
2022-10-22T05:53:03.799Z,17.45
2022-10-22T05:55:36.932Z,17.46
2022-10-22T05:58:08.112Z,17.42
2022-10-22T06:00:37.873Z,17.42
2022-10-22T06:03:10.252Z,17.40
2022-10-22T06:05:40.647Z,17.42
2022-10-22T06:08:18.337Z,17.43
2022-10-22T06:10:49.011Z,17.46
2022-10-22T06:13:18.791Z,17.45
2022-10-22T06:15:48.547Z,17.43
2022-10-22T06:18:20.902Z,17.43
2022-10-22T06:20:50.645Z,17.45
2022-10-22T06:23:20.485Z,17.47
2022-10-22T06:25:59.438Z,17.47
2022-10-22T06:28:29.539Z,17.48
2022-10-22T06:31:01.212Z,17.50
2022-10-22T06:33:42.204Z,17.53
2022-10-22T06:36:14.635Z,17.55
2022-10-22T06:38:44.706Z,17.58
2022-10-22T06:41:17.038Z,17.60
2022-10-22T06:43:48.452Z,17.61
2022-10-22T06:46:21.266Z,17.62
2022-10-22T06:48:58.931Z,17.59
2022-10-22T06:51:29.924Z,17.57
2022-10-22T06:54:01.038Z,17.53
2022-10-22T06:56:31.428Z,17.50
2022-10-22T06:59:01.635Z,17.51
2022-10-22T07:01:34.202Z,17.54
2022-10-22T07:04:08.957Z,17.54
2022-10-22T07:06:39.051Z,17.53
2022-10-22T07:09:09.033Z,17.45
2022-10-22T07:11:43.400Z,17.47
2022-10-22T07:14:13.854Z,17.48
2022-10-22T07:16:45.795Z,17.54
2022-10-22T07:19:18.180Z,17.56
2022-10-22T07:21:47.944Z,17.51
2022-10-22T07:24:17.735Z,17.53
2022-10-22T07:26:47.489Z,17.54
2022-10-22T07:29:18.108Z,17.49
2022-10-22T07:31:48.106Z,17.52
2022-10-22T07:37:10.169Z,17.49
2022-10-22T07:39:40.195Z,17.54
2022-10-22T07:42:09.933Z,17.62
2022-10-22T07:44:39.703Z,17.66
2022-10-22T07:47:09.515Z,17.71
2022-10-22T07:49:41.892Z,17.76
2022-10-22T07:52:11.646Z,17.83
2022-10-22T07:54:41.514Z,17.84
2022-10-22T07:57:11.323Z,17.89
2022-10-22T07:59:41.257Z,17.96
2022-10-22T08:02:12.835Z,17.95
2022-10-22T08:04:45.385Z,17.95
2022-10-22T08:07:15.376Z,17.95
2022-10-22T08:09:45.337Z,17.94
2022-10-22T08:12:15.189Z,17.92
2022-10-22T08:14:45.093Z,17.85
2022-10-22T08:17:14.818Z,17.78
2022-10-22T08:19:47.336Z,17.76
2022-10-22T08:22:17.364Z,17.78
2022-10-22T08:24:47.195Z,17.81
2022-10-22T08:27:16.930Z,17.85
2022-10-22T08:29:46.689Z,17.82
2022-10-22T08:32:16.929Z,17.81
2022-10-22T08:34:49.336Z,17.84
2022-10-22T08:37:19.278Z,17.88
2022-10-22T08:39:49.059Z,17.92
2022-10-22T08:42:40.325Z,17.97
2022-10-22T08:45:16.055Z,18.01
2022-10-22T08:47:59.031Z,17.99
2022-10-22T08:50:38.442Z,17.96
2022-10-22T08:53:14.118Z,17.97
2022-10-22T08:55:44.646Z,17.96
2022-10-22T08:58:25.238Z,17.93
2022-10-22T09:01:01.358Z,17.96
2022-10-22T09:03:43.378Z,17.96
2022-10-22T09:06:18.795Z,17.98
2022-10-22T09:08:50.350Z,18.04
2022-10-22T09:11:33.390Z,18.13
2022-10-22T09:14:04.129Z,18.26
2022-10-22T09:16:40.082Z,18.26
2022-10-22T09:19:20.960Z,18.26
2022-10-22T09:22:02.390Z,18.30
2022-10-22T09:24:39.500Z,18.35
2022-10-22T09:27:15.298Z,18.44
2022-10-22T09:29:46.237Z,18.58
2022-10-22T09:32:16.546Z,18.62
2022-10-22T09:34:47.209Z,18.71
2022-10-22T09:37:21.618Z,18.79
2022-10-22T09:39:54.983Z,18.91
2022-10-22T09:42:25.694Z,19.05
2022-10-22T09:44:57.632Z,19.15
2022-10-22T09:47:43.437Z,19.26
2022-10-22T09:50:23.535Z,19.39
2022-10-22T09:53:02.630Z,19.38
2022-10-22T09:55:32.559Z,19.31
2022-10-22T09:58:05.122Z,19.19
2022-10-22T10:00:34.867Z,19.11
2022-10-22T10:03:05.159Z,19.05
2022-10-22T10:05:37.736Z,19.01
2022-10-22T10:08:16.303Z,18.99
2022-10-22T10:10:55.998Z,19.11
2022-10-22T10:13:41.175Z,19.16
2022-10-22T10:16:21.047Z,19.23
2022-10-22T10:19:09.405Z,19.22
2022-10-22T10:21:47.898Z,19.16
2022-10-22T10:24:30.293Z,19.09
2022-10-22T10:27:17.773Z,19.09
2022-10-22T10:29:54.023Z,19.04
2022-10-22T10:32:39.041Z,19.00
2022-10-22T10:35:23.096Z,18.97
2022-10-22T10:38:06.294Z,18.96
2022-10-22T10:40:45.330Z,18.98
2022-10-22T10:43:20.828Z,19.02
2022-10-22T10:46:00.268Z,19.02
2022-10-22T10:48:39.732Z,18.98
2022-10-22T10:51:18.449Z,18.98
2022-10-22T10:54:02.148Z,18.98
2022-10-22T10:56:42.054Z,19.03
2022-10-22T10:59:20.562Z,19.05
2022-10-22T11:02:02.766Z,19.15
2022-10-22T11:05:02.659Z,19.38
2022-10-22T11:07:40.124Z,19.71
2022-10-22T11:10:20.158Z,20.08
2022-10-22T11:12:58.921Z,20.32
2022-10-22T11:15:32.292Z,20.65
2022-10-22T11:18:11.611Z,20.91
2022-10-22T11:20:50.713Z,21.09
2022-10-22T11:23:28.371Z,21.11
2022-10-22T11:25:58.075Z,21.06
2022-10-22T11:28:36.712Z,20.94
2022-10-22T11:31:12.721Z,20.95
2022-10-22T11:33:49.857Z,20.94
2022-10-22T11:36:24.831Z,20.78
2022-10-22T11:38:54.987Z,20.71
2022-10-22T11:41:28.215Z,20.85
2022-10-22T11:44:12.716Z,21.18
2022-10-22T11:46:58.689Z,22.24
2022-10-22T11:49:30.691Z,22.88
2022-10-22T11:52:26.093Z,23.94
2022-10-22T11:55:00.743Z,24.21
2022-10-22T11:57:38.384Z,23.74
2022-10-22T12:00:34.051Z,23.11
2022-10-22T12:03:19.746Z,22.98
2022-10-22T12:05:49.644Z,22.97
2022-10-22T12:08:24.392Z,22.89
2022-10-22T12:13:59.283Z,25.22
2022-10-22T12:16:54.802Z,25.88
2022-10-22T12:19:32.808Z,26.24
2022-10-22T12:22:04.975Z,26.25
2022-10-22T12:24:40.590Z,26.39
2022-10-22T12:27:22.586Z,26.63
2022-10-22T12:29:58.192Z,26.74
2022-10-22T12:32:40.365Z,27.03
2022-10-22T12:35:19.083Z,27.16
2022-10-22T12:37:52.838Z,28.17
2022-10-22T12:40:25.946Z,29.82
2022-10-22T12:42:57.800Z,31.11
2022-10-22T12:45:30.851Z,30.79
2022-10-22T12:48:03.697Z,29.73
2022-10-22T12:50:39.590Z,28.40
2022-10-22T12:53:09.791Z,27.32
2022-10-22T12:55:39.660Z,26.30
2022-10-22T12:58:09.940Z,25.50
2022-10-22T13:00:41.477Z,24.90
2022-10-22T13:03:27.350Z,24.46
2022-10-22T13:05:59.753Z,24.09
2022-10-22T13:08:31.795Z,24.09
2022-10-22T13:11:10.836Z,24.18
2022-10-22T13:13:47.345Z,23.92
2022-10-22T13:16:24.354Z,23.66
2022-10-22T13:18:55.900Z,23.38
2022-10-22T13:21:31.632Z,23.16
2022-10-22T13:24:03.974Z,22.90
2022-10-22T13:26:36.942Z,22.73
2022-10-22T13:29:14.837Z,22.62
2022-10-22T13:31:50.115Z,22.57
2022-10-22T13:34:22.244Z,22.48
2022-10-22T13:36:55.115Z,22.41
2022-10-22T13:39:26.974Z,22.36
2022-10-22T13:41:56.732Z,22.28
2022-10-22T13:44:26.569Z,22.21
2022-10-22T13:46:56.400Z,22.17
2022-10-22T13:49:26.160Z,22.10
2022-10-22T13:51:59.234Z,22.05
2022-10-22T13:54:29.015Z,22.05
2022-10-22T13:56:58.772Z,21.98
2022-10-22T13:59:28.516Z,21.93
2022-10-22T14:01:58.335Z,21.91
2022-10-22T14:04:28.095Z,21.90
2022-10-22T14:07:03.710Z,21.88
2022-10-22T14:09:33.829Z,21.84
2022-10-22T14:12:04.477Z,21.80
2022-10-22T14:14:34.224Z,21.80
2022-10-22T14:17:04.721Z,21.76
2022-10-22T14:19:34.913Z,21.80
2022-10-22T14:22:07.455Z,21.78
2022-10-22T14:24:37.229Z,21.78
2022-10-22T14:27:07.056Z,21.75
2022-10-22T14:29:36.852Z,21.71
2022-10-22T14:32:06.906Z,21.68
2022-10-22T14:34:36.710Z,21.67
2022-10-22T14:37:16.300Z,21.63
2022-10-22T14:39:46.848Z,21.58
2022-10-22T14:42:17.091Z,21.47
2022-10-22T14:44:47.139Z,21.44
2022-10-22T14:47:16.872Z,21.33
2022-10-22T14:49:46.738Z,21.34
2022-10-22T14:52:20.269Z,21.32
2022-10-22T14:54:50.545Z,21.31
2022-10-22T14:57:20.484Z,21.29
2022-10-22T14:59:50.292Z,21.28
2022-10-22T15:02:20.065Z,21.24
2022-10-22T15:04:49.977Z,21.20
2022-10-22T15:07:24.770Z,21.16
2022-10-22T15:09:54.550Z,21.13
2022-10-22T15:12:24.566Z,21.10
2022-10-22T15:14:54.528Z,21.09
2022-10-22T15:17:24.293Z,21.07
2022-10-22T15:19:56.274Z,21.05
2022-10-22T15:22:28.630Z,21.01
2022-10-22T15:24:58.374Z,20.97
2022-10-22T15:27:28.634Z,20.92
2022-10-22T15:29:59.831Z,20.89
2022-10-22T15:32:32.383Z,20.86
2022-10-22T15:35:02.647Z,20.83
2022-10-22T15:37:37.815Z,20.79
2022-10-22T15:40:09.086Z,20.77
2022-10-22T15:42:39.214Z,20.74
2022-10-22T15:45:10.304Z,20.70
2022-10-22T15:47:40.304Z,20.67
2022-10-22T15:50:11.724Z,20.63
2022-10-22T15:52:44.102Z,20.60
2022-10-22T15:58:04.385Z,20.55
2022-10-22T16:00:35.272Z,20.50
2022-10-22T16:03:05.155Z,20.48
2022-10-22T16:05:34.943Z,20.44
2022-10-22T16:08:09.282Z,20.40
2022-10-22T16:10:39.138Z,20.38
2022-10-22T16:13:09.058Z,20.33
2022-10-22T16:15:38.875Z,20.32
2022-10-22T16:18:08.860Z,20.29
2022-10-22T16:20:41.594Z,20.25
2022-10-22T16:23:14.785Z,20.23
2022-10-22T16:25:45.328Z,20.20
2022-10-22T16:28:15.312Z,20.17
2022-10-22T16:30:45.207Z,20.13
2022-10-22T16:33:15.387Z,20.09
2022-10-22T16:35:45.525Z,20.05
2022-10-22T16:38:19.105Z,19.98
2022-10-22T16:40:49.469Z,19.94
2022-10-22T16:43:19.550Z,19.92
2022-10-22T16:45:53.031Z,19.91
2022-10-22T16:48:22.816Z,19.90
2022-10-22T16:50:52.559Z,19.87
2022-10-22T16:53:25.310Z,19.83
2022-10-22T16:55:55.144Z,19.80
2022-10-22T16:58:25.676Z,19.76
2022-10-22T17:00:55.523Z,19.73
2022-10-22T17:03:27.603Z,19.70
2022-10-22T17:06:01.069Z,19.65
2022-10-22T17:08:34.097Z,19.63
2022-10-22T17:11:09.208Z,19.59
2022-10-22T17:13:40.184Z,19.57
2022-10-22T17:16:13.143Z,19.57
2022-10-22T17:21:17.139Z,19.59
2022-10-22T17:23:50.013Z,19.59
2022-10-22T17:26:22.809Z,19.57
2022-10-22T17:28:52.910Z,19.55
2022-10-22T17:31:24.987Z,19.52
2022-10-22T17:33:57.043Z,19.52
2022-10-22T17:36:30.407Z,19.51
2022-10-22T17:39:07.931Z,19.51
2022-10-22T17:41:40.095Z,19.52
2022-10-22T17:44:12.354Z,19.49
2022-10-22T17:46:43.843Z,19.48
2022-10-22T17:49:19.362Z,19.47
2022-10-22T17:51:49.261Z,19.47
2022-10-22T17:54:21.794Z,19.45
2022-10-22T17:56:51.641Z,19.46
2022-10-22T17:59:21.447Z,19.45
2022-10-22T18:01:51.295Z,19.44
2022-10-22T18:04:23.886Z,19.42
2022-10-22T18:06:53.651Z,19.42
2022-10-22T18:09:26.386Z,19.42
2022-10-22T18:11:57.367Z,19.44
2022-10-22T18:14:27.322Z,19.44
2022-10-22T18:16:57.369Z,19.41
2022-10-22T18:19:27.146Z,19.39
2022-10-22T18:21:56.921Z,19.39
2022-10-22T18:24:29.522Z,19.38
2022-10-22T18:26:59.273Z,19.39
2022-10-22T18:29:29.105Z,19.39
2022-10-22T18:31:59.229Z,19.41
2022-10-22T18:34:30.397Z,19.39
2022-10-22T18:37:00.151Z,19.41
2022-10-22T18:39:32.511Z,19.39
2022-10-22T18:42:06.347Z,19.39
2022-10-22T18:44:37.349Z,19.39
2022-10-22T18:47:08.712Z,19.38
2022-10-22T18:49:38.480Z,19.37
2022-10-22T18:52:08.591Z,19.37
2022-10-22T18:54:40.986Z,19.35
2022-10-22T18:57:10.910Z,19.36
2022-10-22T18:59:41.121Z,19.34
2022-10-22T19:02:16.106Z,19.33
2022-10-22T19:04:46.426Z,19.38
2022-10-22T19:07:16.339Z,19.34
2022-10-22T19:09:48.694Z,19.31
2022-10-22T19:12:21.631Z,19.33
2022-10-22T19:14:51.896Z,19.28
2022-10-22T19:17:21.815Z,19.27
2022-10-22T19:19:51.894Z,19.28
2022-10-22T19:22:21.685Z,19.25
2022-10-22T19:24:54.576Z,19.20
2022-10-22T19:27:24.421Z,19.19
2022-10-22T19:29:54.222Z,19.16
2022-10-22T19:32:26.296Z,19.15
2022-10-22T19:34:59.287Z,19.10
2022-10-22T19:37:29.642Z,19.09
2022-10-22T19:40:02.342Z,19.09
2022-10-22T19:42:32.296Z,19.09
2022-10-22T19:45:02.190Z,19.06
2022-10-22T19:47:32.010Z,19.04
2022-10-22T19:50:02.091Z,19.00
2022-10-22T19:52:31.826Z,18.97
2022-10-22T19:55:04.955Z,18.95
2022-10-22T19:57:34.950Z,18.96
2022-10-22T20:00:04.878Z,18.94
2022-10-22T20:02:40.955Z,18.93
2022-10-22T20:05:11.877Z,18.92
2022-10-22T20:07:42.052Z,18.88
2022-10-22T20:10:15.260Z,18.86
2022-10-22T20:12:45.025Z,18.88
2022-10-22T20:15:14.769Z,18.90
2022-10-22T20:17:44.858Z,18.88
2022-10-22T20:20:14.744Z,18.87
2022-10-22T20:22:44.870Z,18.86
2022-10-22T20:25:17.719Z,18.80
2022-10-22T20:27:47.813Z,18.79
2022-10-22T20:30:19.653Z,18.79
2022-10-22T20:32:51.167Z,18.78
2022-10-22T20:35:21.525Z,18.76
2022-10-22T20:37:51.416Z,18.73
2022-10-22T20:40:26.147Z,18.72
2022-10-22T20:42:55.941Z,18.76
2022-10-22T20:45:25.683Z,18.77
2022-10-22T20:48:02.087Z,18.81
2022-10-22T20:50:34.153Z,18.83
2022-10-22T20:53:03.992Z,18.88
2022-10-22T20:55:36.404Z,18.83
2022-10-22T20:58:06.318Z,18.82
2022-10-22T21:00:39.160Z,18.82
2022-10-22T21:03:08.954Z,18.82
2022-10-22T21:05:38.773Z,18.83
2022-10-22T21:08:10.429Z,18.81
2022-10-22T21:10:42.791Z,18.79
2022-10-22T21:13:12.615Z,18.80
2022-10-22T21:15:42.460Z,18.78
2022-10-22T21:18:12.283Z,18.76
2022-10-22T21:20:42.301Z,18.77
2022-10-22T21:23:12.054Z,18.80
2022-10-22T21:25:44.498Z,18.79
2022-10-22T21:28:14.241Z,18.81
2022-10-22T21:30:47.553Z,18.83
2022-10-22T21:33:17.369Z,18.88
2022-10-22T21:35:53.772Z,18.89
2022-10-22T21:38:24.858Z,18.92
2022-10-22T21:40:57.248Z,18.94
2022-10-22T21:43:27.212Z,18.97
2022-10-22T21:46:07.987Z,18.97
2022-10-22T21:48:40.404Z,19.01
2022-10-22T21:51:12.251Z,19.03
2022-10-22T21:53:42.163Z,19.06
2022-10-22T21:56:17.870Z,19.05
2022-10-22T21:58:47.916Z,19.05
2022-10-22T22:01:18.511Z,19.03
2022-10-22T22:03:51.610Z,19.03
2022-10-22T22:06:22.658Z,19.03
2022-10-22T22:08:54.238Z,19.02
2022-10-22T22:11:28.630Z,19.02
2022-10-22T22:14:00.444Z,19.02
2022-10-22T22:16:32.771Z,19.02
2022-10-22T22:21:54.527Z,19.04
2022-10-22T22:24:24.296Z,19.07
2022-10-22T22:26:56.764Z,19.08
2022-10-22T22:29:26.564Z,19.06
2022-10-22T22:31:56.376Z,19.04
2022-10-22T22:34:26.141Z,19.04
2022-10-22T22:36:55.933Z,19.01
2022-10-22T22:39:26.155Z,18.99
2022-10-22T22:41:58.527Z,18.98
2022-10-22T22:44:28.551Z,18.95
2022-10-22T22:46:58.341Z,18.93
2022-10-22T22:49:28.105Z,18.92
2022-10-22T22:51:57.937Z,18.90
2022-10-22T22:54:27.996Z,18.88
2022-10-22T22:57:00.333Z,18.86
2022-10-22T22:59:30.139Z,18.86
2022-10-22T23:02:00.172Z,18.84
2022-10-22T23:04:30.418Z,18.79
2022-10-22T23:07:00.264Z,18.74
2022-10-22T23:09:30.294Z,18.71
2022-10-22T23:12:02.695Z,18.67
2022-10-22T23:14:32.506Z,18.65
2022-10-22T23:17:02.296Z,18.59
2022-10-22T23:19:32.136Z,18.58
2022-10-22T23:22:01.882Z,18.57
2022-10-22T23:24:32.404Z,18.56
2022-10-22T23:27:06.226Z,18.53
2022-10-22T23:29:38.802Z,18.51
2022-10-22T23:32:14.613Z,18.47
2022-10-22T23:34:44.428Z,18.47
2022-10-22T23:37:14.945Z,18.44
2022-10-22T23:39:44.733Z,18.44
2022-10-22T23:42:17.092Z,18.40
2022-10-22T23:44:46.850Z,18.41
2022-10-22T23:47:16.714Z,18.38
2022-10-22T23:49:46.490Z,18.36
2022-10-22T23:52:16.307Z,18.34
2022-10-22T23:54:46.175Z,18.28
2022-10-22T23:57:18.567Z,18.25
2022-10-22T23:59:48.419Z,18.25
